sensor_id;sensor_type;location;lat;lon;timestamp;temperature;humidity
51815;DHT22;37874;53.158;6.766;2023-04-01T00:01:31;20.10;60.10
51815;DHT22;37874;53.158;6.766;2023-04-01T00:03:56;20.10;60.10
51815;DHT22;37874;53.158;6.766;2023-04-01T00:06:22;20.10;60.10
51815;DHT22;37874;53.158;6.766;2023-04-01T00:08:48;19.90;60.00
51815;DHT22;37874;53.158;6.766;2023-04-01T00:11:14;20.10;60.10
51815;DHT22;37874;53.158;6.766;2023-04-01T00:13:41;20.10;60.10
51815;DHT22;37874;53.158;6.766;2023-04-01T00:16:07;20.00;60.00
51815;DHT22;37874;53.158;6.766;2023-04-01T00:18:33;20.00;60.00
51815;DHT22;37874;53.158;6.766;2023-04-01T00:20:59;20.00;60.10
51815;DHT22;37874;53.158;6.766;2023-04-01T00:23:26;20.00;60.00
51815;DHT22;37874;53.158;6.766;2023-04-01T00:25:51;20.10;60.10
51815;DHT22;37874;53.158;6.766;2023-04-01T00:28:19;20.10;60.00
51815;DHT22;37874;53.158;6.766;2023-04-01T00:30:45;20.10;60.00
51815;DHT22;37874;53.158;6.766;2023-04-01T00:33:11;20.10;60.00
51815;DHT22;37874;53.158;6.766;2023-04-01T00:35:36;20.00;59.80
51815;DHT22;37874;53.158;6.766;2023-04-01T00:38:02;20.10;60.00
51815;DHT22;37874;53.158;6.766;2023-04-01T00:40:34;20.10;59.90
51815;DHT22;37874;53.158;6.766;2023-04-01T00:43:00;20.10;59.90
51815;DHT22;37874;53.158;6.766;2023-04-01T00:45:37;20.10;59.90
51815;DHT22;37874;53.158;6.766;2023-04-01T00:48:10;20.10;60.00
51815;DHT22;37874;53.158;6.766;2023-04-01T00:50:39;20.10;60.00
51815;DHT22;37874;53.158;6.766;2023-04-01T00:53:07;20.00;59.80
51815;DHT22;37874;53.158;6.766;2023-04-01T00:55:35;20.10;59.90
51815;DHT22;37874;53.158;6.766;2023-04-01T00:58:05;20.00;59.80
51815;DHT22;37874;53.158;6.766;2023-04-01T01:00:32;20.10;59.80
51815;DHT22;37874;53.158;6.766;2023-04-01T01:02:59;20.10;59.70
51815;DHT22;37874;53.158;6.766;2023-04-01T01:05:37;20.10;59.80
51815;DHT22;37874;53.158;6.766;2023-04-01T01:11:03;20.10;59.70
51815;DHT22;37874;53.158;6.766;2023-04-01T01:13:50;20.10;59.80
51815;DHT22;37874;53.158;6.766;2023-04-01T01:16:31;20.00;59.70
51815;DHT22;37874;53.158;6.766;2023-04-01T01:20:10;20.10;59.80
51815;DHT22;37874;53.158;6.766;2023-04-01T01:27:38;20.10;59.60
51815;DHT22;37874;53.158;6.766;2023-04-01T01:30:19;20.10;59.60
51815;DHT22;37874;53.158;6.766;2023-04-01T01:33:06;20.00;59.50
51815;DHT22;37874;53.158;6.766;2023-04-01T01:35:46;20.00;59.50
51815;DHT22;37874;53.158;6.766;2023-04-01T01:38:18;20.10;59.60
51815;DHT22;37874;53.158;6.766;2023-04-01T01:40:48;20.10;59.50
51815;DHT22;37874;53.158;6.766;2023-04-01T01:43:21;20.00;59.50
51815;DHT22;37874;53.158;6.766;2023-04-01T01:45:54;20.10;59.60
51815;DHT22;37874;53.158;6.766;2023-04-01T01:48:21;20.10;59.60
51815;DHT22;37874;53.158;6.766;2023-04-01T01:50:48;20.10;59.50
51815;DHT22;37874;53.158;6.766;2023-04-01T01:53:16;20.00;59.40
51815;DHT22;37874;53.158;6.766;2023-04-01T01:55:44;20.10;59.40
51815;DHT22;37874;53.158;6.766;2023-04-01T02:00:57;20.00;59.40
51815;DHT22;37874;53.158;6.766;2023-04-01T02:03:26;20.00;59.40
51815;DHT22;37874;53.158;6.766;2023-04-01T02:05:54;20.00;59.40
51815;DHT22;37874;53.158;6.766;2023-04-01T02:08:35;20.20;59.60
51815;DHT22;37874;53.158;6.766;2023-04-01T02:11:08;20.00;59.40
51815;DHT22;37874;53.158;6.766;2023-04-01T02:13:38;20.00;59.40
51815;DHT22;37874;53.158;6.766;2023-04-01T02:16:11;20.00;59.40
51815;DHT22;37874;53.158;6.766;2023-04-01T02:18:38;20.00;59.30
51815;DHT22;37874;53.158;6.766;2023-04-01T02:21:05;20.00;59.30
51815;DHT22;37874;53.158;6.766;2023-04-01T02:23:36;20.00;59.30
51815;DHT22;37874;53.158;6.766;2023-04-01T02:26:05;20.00;59.30
51815;DHT22;37874;53.158;6.766;2023-04-01T02:28:33;20.00;59.30
51815;DHT22;37874;53.158;6.766;2023-04-01T02:31:00;20.50;59.60
51815;DHT22;37874;53.158;6.766;2023-04-01T02:33:28;20.00;59.20
51815;DHT22;37874;53.158;6.766;2023-04-01T02:35:54;20.00;59.20
51815;DHT22;37874;53.158;6.766;2023-04-01T02:38:19;20.00;59.20
51815;DHT22;37874;53.158;6.766;2023-04-01T02:40:48;20.00;59.20
51815;DHT22;37874;53.158;6.766;2023-04-01T02:43:14;20.00;59.20
51815;DHT22;37874;53.158;6.766;2023-04-01T02:45:40;20.10;59.20
51815;DHT22;37874;53.158;6.766;2023-04-01T02:48:06;20.00;59.10
51815;DHT22;37874;53.158;6.766;2023-04-01T02:50:31;20.00;59.10
51815;DHT22;37874;53.158;6.766;2023-04-01T02:52:57;20.00;59.10
51815;DHT22;37874;53.158;6.766;2023-04-01T02:55:22;20.00;59.10
51815;DHT22;37874;53.158;6.766;2023-04-01T02:57:48;20.00;59.00
51815;DHT22;37874;53.158;6.766;2023-04-01T03:00:14;20.10;59.10
51815;DHT22;37874;53.158;6.766;2023-04-01T03:02:41;20.00;59.10
51815;DHT22;37874;53.158;6.766;2023-04-01T03:05:07;20.00;59.00
51815;DHT22;37874;53.158;6.766;2023-04-01T03:07:33;20.00;59.50
51815;DHT22;37874;53.158;6.766;2023-04-01T03:09:58;20.80;59.40
51815;DHT22;37874;53.158;6.766;2023-04-01T03:12:24;20.00;58.90
51815;DHT22;37874;53.158;6.766;2023-04-01T03:14:50;20.00;59.00
51815;DHT22;37874;53.158;6.766;2023-04-01T03:17:15;20.00;59.00
51815;DHT22;37874;53.158;6.766;2023-04-01T03:19:41;20.00;59.00
51815;DHT22;37874;53.158;6.766;2023-04-01T03:22:07;20.00;58.90
51815;DHT22;37874;53.158;6.766;2023-04-01T03:24:33;20.00;58.90
51815;DHT22;37874;53.158;6.766;2023-04-01T03:26:58;20.20;59.00
51815;DHT22;37874;53.158;6.766;2023-04-01T03:29:24;20.00;58.90
51815;DHT22;37874;53.158;6.766;2023-04-01T03:31:50;20.00;58.90
51815;DHT22;37874;53.158;6.766;2023-04-01T03:34:15;20.00;58.90
51815;DHT22;37874;53.158;6.766;2023-04-01T03:36:41;20.00;58.90
51815;DHT22;37874;53.158;6.766;2023-04-01T03:39:06;20.00;58.90
51815;DHT22;37874;53.158;6.766;2023-04-01T03:41:32;20.00;58.90
51815;DHT22;37874;53.158;6.766;2023-04-01T03:43:58;20.00;58.90
51815;DHT22;37874;53.158;6.766;2023-04-01T03:46:23;20.00;58.80
51815;DHT22;37874;53.158;6.766;2023-04-01T03:48:49;20.00;58.90
51815;DHT22;37874;53.158;6.766;2023-04-01T03:51:14;20.60;59.10
51815;DHT22;37874;53.158;6.766;2023-04-01T03:53:40;20.00;58.80
51815;DHT22;37874;53.158;6.766;2023-04-01T03:56:07;20.00;58.80
51815;DHT22;37874;53.158;6.766;2023-04-01T03:58:33;20.00;58.80
51815;DHT22;37874;53.158;6.766;2023-04-01T04:00:58;20.00;58.80
51815;DHT22;37874;53.158;6.766;2023-04-01T04:03:24;20.00;58.80
51815;DHT22;37874;53.158;6.766;2023-04-01T04:05:50;20.00;58.80
51815;DHT22;37874;53.158;6.766;2023-04-01T04:08:16;20.00;58.80
51815;DHT22;37874;53.158;6.766;2023-04-01T04:10:43;20.00;58.70
51815;DHT22;37874;53.158;6.766;2023-04-01T04:13:08;20.10;58.80
51815;DHT22;37874;53.158;6.766;2023-04-01T04:15:34;20.00;58.70
51815;DHT22;37874;53.158;6.766;2023-04-01T04:17:59;19.90;58.70
51815;DHT22;37874;53.158;6.766;2023-04-01T04:20:25;20.00;58.80
51815;DHT22;37874;53.158;6.766;2023-04-01T04:22:51;20.00;58.70
51815;DHT22;37874;53.158;6.766;2023-04-01T04:25:16;20.00;58.60
51815;DHT22;37874;53.158;6.766;2023-04-01T04:27:42;20.00;58.70
51815;DHT22;37874;53.158;6.766;2023-04-01T04:30:08;20.00;58.60
51815;DHT22;37874;53.158;6.766;2023-04-01T04:32:34;20.00;58.60
51815;DHT22;37874;53.158;6.766;2023-04-01T04:34:59;20.00;58.60
51815;DHT22;37874;53.158;6.766;2023-04-01T04:37:25;20.00;58.60
51815;DHT22;37874;53.158;6.766;2023-04-01T04:39:51;20.00;58.50
51815;DHT22;37874;53.158;6.766;2023-04-01T04:42:17;20.00;58.60
51815;DHT22;37874;53.158;6.766;2023-04-01T04:44:42;19.90;58.50
51815;DHT22;37874;53.158;6.766;2023-04-01T04:47:08;19.90;58.50
51815;DHT22;37874;53.158;6.766;2023-04-01T04:49:33;20.00;58.50
51815;DHT22;37874;53.158;6.766;2023-04-01T06:55:34;20.00;58.00
51815;DHT22;37874;53.158;6.766;2023-04-01T06:58:05;20.00;58.00
51815;DHT22;37874;53.158;6.766;2023-04-01T07:00:43;20.00;58.00
51815;DHT22;37874;53.158;6.766;2023-04-01T07:06:02;20.00;58.00
51815;DHT22;37874;53.158;6.766;2023-04-01T07:08:29;20.00;57.90
51815;DHT22;37874;53.158;6.766;2023-04-01T07:11:04;20.00;58.00
51815;DHT22;37874;53.158;6.766;2023-04-01T07:16:13;20.00;57.90
51815;DHT22;37874;53.158;6.766;2023-04-01T07:19:25;20.00;57.90
51815;DHT22;37874;53.158;6.766;2023-04-01T07:22:03;20.10;57.90
51815;DHT22;37874;53.158;6.766;2023-04-01T07:24:44;20.00;57.90
51815;DHT22;37874;53.158;6.766;2023-04-01T07:27:12;20.00;57.80
51815;DHT22;37874;53.158;6.766;2023-04-01T07:29:38;20.10;57.90
51815;DHT22;37874;53.158;6.766;2023-04-01T07:32:27;20.10;57.80
51815;DHT22;37874;53.158;6.766;2023-04-01T07:35:09;19.50;57.50
51815;DHT22;37874;53.158;6.766;2023-04-01T07:38:03;20.10;57.80
51815;DHT22;37874;53.158;6.766;2023-04-01T07:52:04;20.10;57.60
51815;DHT22;37874;53.158;6.766;2023-04-01T07:57:27;20.20;57.60
51815;DHT22;37874;53.158;6.766;2023-04-01T08:00:06;20.20;57.60
51815;DHT22;37874;53.158;6.766;2023-04-01T08:02:56;20.20;57.50
51815;DHT22;37874;53.158;6.766;2023-04-01T08:05:40;20.20;57.40
51815;DHT22;37874;53.158;6.766;2023-04-01T08:13:11;20.30;57.30
51815;DHT22;37874;53.158;6.766;2023-04-01T08:21:47;20.30;57.30
51815;DHT22;37874;53.158;6.766;2023-04-01T08:24:45;20.30;57.20
51815;DHT22;37874;53.158;6.766;2023-04-01T08:27:21;20.30;57.20
51815;DHT22;37874;53.158;6.766;2023-04-01T08:29:59;20.30;57.20
51815;DHT22;37874;53.158;6.766;2023-04-01T08:32:39;20.30;57.20
51815;DHT22;37874;53.158;6.766;2023-04-01T08:35:29;20.30;57.30
51815;DHT22;37874;53.158;6.766;2023-04-01T08:38:00;20.30;57.30
51815;DHT22;37874;53.158;6.766;2023-04-01T08:57:21;20.30;57.00
51815;DHT22;37874;53.158;6.766;2023-04-01T08:59:57;20.40;57.10
51815;DHT22;37874;53.158;6.766;2023-04-01T09:05:35;20.40;57.00
51815;DHT22;37874;53.158;6.766;2023-04-01T09:11:09;20.30;57.10
51815;DHT22;37874;53.158;6.766;2023-04-01T09:13:55;20.30;57.10
51815;DHT22;37874;53.158;6.766;2023-04-01T09:19:37;20.30;57.10
51815;DHT22;37874;53.158;6.766;2023-04-01T09:27:43;20.30;57.30
51815;DHT22;37874;53.158;6.766;2023-04-01T09:38:56;20.30;57.40
51815;DHT22;37874;53.158;6.766;2023-04-01T09:44:42;20.40;57.40
51815;DHT22;37874;53.158;6.766;2023-04-01T09:52:51;20.40;57.20
51815;DHT22;37874;53.158;6.766;2023-04-01T09:58:16;20.50;57.10
51815;DHT22;37874;53.158;6.766;2023-04-01T10:04:07;20.50;56.90
51815;DHT22;37874;53.158;6.766;2023-04-01T10:34:26;20.70;56.60
51815;DHT22;37874;53.158;6.766;2023-04-01T10:37:02;20.70;56.50
51815;DHT22;37874;53.158;6.766;2023-04-01T10:39:32;20.80;56.30
51815;DHT22;37874;53.158;6.766;2023-04-01T10:56:29;20.80;56.10
51815;DHT22;37874;53.158;6.766;2023-04-01T11:08:15;20.80;56.00
51815;DHT22;37874;53.158;6.766;2023-04-01T11:35:36;21.00;55.70
51815;DHT22;37874;53.158;6.766;2023-04-01T11:41:13;21.00;55.50
51815;DHT22;37874;53.158;6.766;2023-04-01T11:44:10;21.00;55.40
51815;DHT22;37874;53.158;6.766;2023-04-01T11:49:59;21.10;55.30
51815;DHT22;37874;53.158;6.766;2023-04-01T12:00:34;21.10;55.20
51815;DHT22;37874;53.158;6.766;2023-04-01T12:03:36;21.10;55.10
51815;DHT22;37874;53.158;6.766;2023-04-01T12:11:34;21.10;54.90
51815;DHT22;37874;53.158;6.766;2023-04-01T12:14:36;21.10;54.90
51815;DHT22;37874;53.158;6.766;2023-04-01T12:23:14;21.10;54.90
51815;DHT22;37874;53.158;6.766;2023-04-01T12:26:00;21.10;55.00
51815;DHT22;37874;53.158;6.766;2023-04-01T12:31:58;21.10;55.10
51815;DHT22;37874;53.158;6.766;2023-04-01T12:35:02;21.00;55.10
51815;DHT22;37874;53.158;6.766;2023-04-01T12:49:32;21.00;55.00
51815;DHT22;37874;53.158;6.766;2023-04-01T12:55:01;21.00;55.10
51815;DHT22;37874;53.158;6.766;2023-04-01T12:57:53;21.00;55.00
51815;DHT22;37874;53.158;6.766;2023-04-01T13:06:24;21.00;55.30
51815;DHT22;37874;53.158;6.766;2023-04-01T13:08:58;21.00;55.30
51815;DHT22;37874;53.158;6.766;2023-04-01T13:11:34;21.00;55.30
51815;DHT22;37874;53.158;6.766;2023-04-01T13:14:30;21.20;55.40
51815;DHT22;37874;53.158;6.766;2023-04-01T13:28:59;21.00;55.10
51815;DHT22;37874;53.158;6.766;2023-04-01T13:37:20;21.00;55.20
51815;DHT22;37874;53.158;6.766;2023-04-01T13:39:56;21.00;55.30
51815;DHT22;37874;53.158;6.766;2023-04-01T13:42:43;21.00;55.30
51815;DHT22;37874;53.158;6.766;2023-04-01T13:45:23;21.00;55.40
51815;DHT22;37874;53.158;6.766;2023-04-01T13:48:31;21.00;55.60
51815;DHT22;37874;53.158;6.766;2023-04-01T13:51:30;21.00;55.60
51815;DHT22;37874;53.158;6.766;2023-04-01T13:57:31;21.00;55.70
51815;DHT22;37874;53.158;6.766;2023-04-01T14:05:43;21.00;55.60
51815;DHT22;37874;53.158;6.766;2023-04-01T14:11:17;21.10;55.30
51815;DHT22;37874;53.158;6.766;2023-04-01T14:13:55;21.10;55.40
51815;DHT22;37874;53.158;6.766;2023-04-01T14:36:35;21.20;55.30
51815;DHT22;37874;53.158;6.766;2023-04-01T14:51:17;21.10;55.20
51815;DHT22;37874;53.158;6.766;2023-04-01T14:56:43;21.10;55.30
51815;DHT22;37874;53.158;6.766;2023-04-01T15:04:50;21.10;55.40
51815;DHT22;37874;53.158;6.766;2023-04-01T15:10:37;21.10;55.40
51815;DHT22;37874;53.158;6.766;2023-04-01T15:13:19;21.10;55.40
51815;DHT22;37874;53.158;6.766;2023-04-01T15:21:22;21.10;55.30
51815;DHT22;37874;53.158;6.766;2023-04-01T15:35:09;21.00;55.30
51815;DHT22;37874;53.158;6.766;2023-04-01T15:49:15;20.90;55.60
51815;DHT22;37874;53.158;6.766;2023-04-01T15:51:58;20.90;55.50
51815;DHT22;37874;53.158;6.766;2023-04-01T16:00:17;20.80;55.80
51815;DHT22;37874;53.158;6.766;2023-04-01T16:03:08;20.80;55.80
51815;DHT22;37874;53.158;6.766;2023-04-01T16:11:22;20.80;55.80
51815;DHT22;37874;53.158;6.766;2023-04-01T16:17:05;20.80;55.90
51815;DHT22;37874;53.158;6.766;2023-04-01T16:22:32;20.70;55.70
51815;DHT22;37874;53.158;6.766;2023-04-01T16:25:14;20.70;55.70
51815;DHT22;37874;53.158;6.766;2023-04-01T16:28:12;20.70;55.60
51815;DHT22;37874;53.158;6.766;2023-04-01T16:34:41;20.70;55.70
51815;DHT22;37874;53.158;6.766;2023-04-01T16:36:45;20.70;55.80
51815;DHT22;37874;53.158;6.766;2023-04-01T16:39:43;20.70;56.10
51815;DHT22;37874;53.158;6.766;2023-04-01T16:47:56;20.70;56.00
51815;DHT22;37874;53.158;6.766;2023-04-01T16:50:24;20.70;56.00
51815;DHT22;37874;53.158;6.766;2023-04-01T16:53:14;20.70;56.00
51815;DHT22;37874;53.158;6.766;2023-04-01T16:55:49;20.70;56.00
51815;DHT22;37874;53.158;6.766;2023-04-01T16:58:35;20.70;56.00
51815;DHT22;37874;53.158;6.766;2023-04-01T17:01:16;20.70;56.10
51815;DHT22;37874;53.158;6.766;2023-04-01T17:03:46;20.70;56.10
51815;DHT22;37874;53.158;6.766;2023-04-01T17:06:39;20.70;56.20
51815;DHT22;37874;53.158;6.766;2023-04-01T17:21:00;20.60;56.10
51815;DHT22;37874;53.158;6.766;2023-04-01T17:23:42;20.60;56.20
51815;DHT22;37874;53.158;6.766;2023-04-01T17:26:32;20.60;56.10
51815;DHT22;37874;53.158;6.766;2023-04-01T17:35:05;20.70;56.40
51815;DHT22;37874;53.158;6.766;2023-04-01T17:40:26;20.60;55.90
51815;DHT22;37874;53.158;6.766;2023-04-01T17:46:10;20.60;55.80
51815;DHT22;37874;53.158;6.766;2023-04-01T17:49:08;20.60;55.80
51815;DHT22;37874;53.158;6.766;2023-04-01T17:52:44;20.60;55.90
51815;DHT22;37874;53.158;6.766;2023-04-01T17:54:47;20.60;55.90
51815;DHT22;37874;53.158;6.766;2023-04-01T18:08:10;20.60;56.10
51815;DHT22;37874;53.158;6.766;2023-04-01T18:16:05;20.60;55.90
51815;DHT22;37874;53.158;6.766;2023-04-01T18:19:02;20.60;56.00
51815;DHT22;37874;53.158;6.766;2023-04-01T18:21:48;20.50;55.80
51815;DHT22;37874;53.158;6.766;2023-04-01T18:27:33;20.60;55.90
51815;DHT22;37874;53.158;6.766;2023-04-01T18:32:36;20.60;56.00
51815;DHT22;37874;53.158;6.766;2023-04-01T18:40:35;20.60;56.00
51815;DHT22;37874;53.158;6.766;2023-04-01T18:43:22;20.60;56.00
51815;DHT22;37874;53.158;6.766;2023-04-01T18:46:00;20.60;55.90
51815;DHT22;37874;53.158;6.766;2023-04-01T18:48:44;20.60;55.80
51815;DHT22;37874;53.158;6.766;2023-04-01T18:51:20;20.70;55.80
51815;DHT22;37874;53.158;6.766;2023-04-01T18:53:57;20.60;55.70
51815;DHT22;37874;53.158;6.766;2023-04-01T18:56:39;20.70;55.70
51815;DHT22;37874;53.158;6.766;2023-04-01T19:02:02;20.70;55.60
51815;DHT22;37874;53.158;6.766;2023-04-01T19:04:39;20.70;55.40
51815;DHT22;37874;53.158;6.766;2023-04-01T19:09:51;20.70;55.50
51815;DHT22;37874;53.158;6.766;2023-04-01T19:12:25;20.70;55.40
51815;DHT22;37874;53.158;6.766;2023-04-01T19:15:29;20.60;55.30
51815;DHT22;37874;53.158;6.766;2023-04-01T19:18:08;20.60;55.40
51815;DHT22;37874;53.158;6.766;2023-04-01T19:20:57;20.60;55.30
51815;DHT22;37874;53.158;6.766;2023-04-01T19:26:11;20.60;55.40
51815;DHT22;37874;53.158;6.766;2023-04-01T19:31:38;20.60;55.40
51815;DHT22;37874;53.158;6.766;2023-04-01T19:37:34;20.50;55.60
51815;DHT22;37874;53.158;6.766;2023-04-01T19:45:43;20.60;55.50
51815;DHT22;37874;53.158;6.766;2023-04-01T19:50:56;20.50;55.50
51815;DHT22;37874;53.158;6.766;2023-04-01T19:53:43;20.60;55.40
51815;DHT22;37874;53.158;6.766;2023-04-01T19:56:18;20.70;55.40
51815;DHT22;37874;53.158;6.766;2023-04-01T20:01:48;20.50;55.30
51815;DHT22;37874;53.158;6.766;2023-04-01T20:07:09;20.50;55.30
51815;DHT22;37874;53.158;6.766;2023-04-01T20:12:49;20.50;55.20
51815;DHT22;37874;53.158;6.766;2023-04-01T20:15:22;20.50;55.20
51815;DHT22;37874;53.158;6.766;2023-04-01T20:17:48;20.50;55.30
51815;DHT22;37874;53.158;6.766;2023-04-01T20:20:21;20.50;55.00
51815;DHT22;37874;53.158;6.766;2023-04-01T20:22:59;20.50;55.20
51815;DHT22;37874;53.158;6.766;2023-04-01T20:40:15;20.50;55.00
51815;DHT22;37874;53.158;6.766;2023-04-01T20:45:42;20.40;54.80
51815;DHT22;37874;53.158;6.766;2023-04-01T20:51:09;20.40;55.50
51815;DHT22;37874;53.158;6.766;2023-04-01T20:57:05;20.30;54.80
51815;DHT22;37874;53.158;6.766;2023-04-01T20:59:54;20.30;54.60
51815;DHT22;37874;53.158;6.766;2023-04-01T21:29:51;20.20;54.90
51815;DHT22;37874;53.158;6.766;2023-04-01T21:35:21;20.20;54.90
51815;DHT22;37874;53.158;6.766;2023-04-01T21:38:06;20.20;54.80
51815;DHT22;37874;53.158;6.766;2023-04-01T21:43:45;20.20;54.90
51815;DHT22;37874;53.158;6.766;2023-04-01T21:52:51;20.20;54.90
51815;DHT22;37874;53.158;6.766;2023-04-01T22:04:28;20.20;54.90
51815;DHT22;37874;53.158;6.766;2023-04-01T22:07:14;20.20;55.00
51815;DHT22;37874;53.158;6.766;2023-04-01T22:09:58;20.10;54.90
51815;DHT22;37874;53.158;6.766;2023-04-01T22:13:01;20.10;54.90
51815;DHT22;37874;53.158;6.766;2023-04-01T22:15:48;20.10;54.90
51815;DHT22;37874;53.158;6.766;2023-04-01T22:18:34;20.10;54.80
51815;DHT22;37874;53.158;6.766;2023-04-01T22:21:29;20.10;54.80
51815;DHT22;37874;53.158;6.766;2023-04-01T22:24:06;20.10;54.80
51815;DHT22;37874;53.158;6.766;2023-04-01T22:26:59;20.10;54.90
51815;DHT22;37874;53.158;6.766;2023-04-01T22:32:49;20.10;54.80
51815;DHT22;37874;53.158;6.766;2023-04-01T22:41:02;20.00;54.80
51815;DHT22;37874;53.158;6.766;2023-04-01T22:51:42;20.00;54.80
51815;DHT22;37874;53.158;6.766;2023-04-01T22:56:49;20.00;54.80
51815;DHT22;37874;53.158;6.766;2023-04-01T22:59:37;20.00;54.70
51815;DHT22;37874;53.158;6.766;2023-04-01T23:02:30;20.00;54.70
51815;DHT22;37874;53.158;6.766;2023-04-01T23:05:02;20.00;54.80
51815;DHT22;37874;53.158;6.766;2023-04-01T23:07:55;20.00;54.80
51815;DHT22;37874;53.158;6.766;2023-04-01T23:10:25;19.90;54.70
51815;DHT22;37874;53.158;6.766;2023-04-01T23:12:53;19.90;54.70
51815;DHT22;37874;53.158;6.766;2023-04-01T23:15:20;19.80;54.60
51815;DHT22;37874;53.158;6.766;2023-04-01T23:18:00;19.90;55.20
51815;DHT22;37874;53.158;6.766;2023-04-01T23:21:06;19.90;54.70
51815;DHT22;37874;53.158;6.766;2023-04-01T23:26:32;19.90;54.60
51815;DHT22;37874;53.158;6.766;2023-04-01T23:29:00;19.90;54.60
51815;DHT22;37874;53.158;6.766;2023-04-01T23:31:30;19.90;54.60
